createdAt,value
2022-12-18T00:01:04.135Z,38.60
2022-12-18T00:04:09.140Z,39.00
2022-12-18T00:07:14.248Z,36.60
2022-12-18T00:10:17.506Z,41.40
2022-12-18T00:13:20.813Z,35.00
2022-12-18T00:16:26.392Z,35.00
2022-12-18T00:19:29.821Z,37.40
2022-12-18T00:22:35.003Z,40.00
2022-12-18T00:25:38.855Z,35.40
2022-12-18T00:28:42.148Z,36.00
2022-12-18T00:31:45.880Z,36.00
2022-12-18T00:34:49.149Z,35.00
2022-12-18T00:37:54.193Z,35.00
2022-12-18T00:40:57.573Z,39.40
2022-12-18T00:43:59.833Z,38.40
2022-12-18T00:47:03.126Z,36.40
2022-12-18T00:50:07.320Z,36.00
2022-12-18T00:53:11.975Z,37.20
2022-12-18T00:56:15.730Z,36.00
2022-12-18T00:59:20.223Z,37.60
2022-12-18T01:02:23.958Z,34.25
2022-12-18T01:05:27.626Z,36.00
2022-12-18T01:08:32.363Z,38.00
2022-12-18T01:11:36.380Z,37.75
2022-12-18T01:14:41.264Z,39.00
2022-12-18T01:17:45.256Z,38.00
2022-12-18T01:20:48.846Z,35.00
2022-12-18T01:23:56.347Z,34.75
2022-12-18T01:27:00.478Z,40.00
2022-12-18T01:30:04.791Z,38.80
2022-12-18T01:33:08.089Z,39.80
2022-12-18T01:36:17.986Z,36.60
2022-12-18T01:39:22.909Z,38.00
2022-12-18T01:42:26.957Z,38.00
2022-12-18T01:45:32.997Z,35.75
2022-12-18T01:48:36.305Z,35.80
2022-12-18T01:51:40.979Z,36.00
2022-12-18T01:54:46.937Z,35.00
2022-12-18T01:57:51.772Z,36.00
2022-12-18T02:00:56.845Z,35.50
2022-12-18T02:04:22.398Z,35.00
2022-12-18T02:07:34.619Z,36.00
2022-12-18T02:10:48.448Z,35.40
2022-12-18T02:13:59.352Z,35.00
2022-12-18T02:17:09.017Z,37.75
2022-12-18T02:20:19.118Z,33.00
2022-12-18T02:23:40.640Z,37.75
2022-12-18T02:26:51.108Z,38.00
2022-12-18T02:30:00.319Z,38.40
2022-12-18T02:33:09.267Z,37.00
2022-12-18T02:36:15.874Z,35.33
2022-12-18T02:39:23.402Z,36.00
2022-12-18T02:42:36.064Z,34.33
2022-12-18T02:45:49.959Z,35.00
2022-12-18T02:48:58.677Z,36.00
2022-12-18T02:52:10.342Z,34.00
2022-12-18T02:55:28.528Z,36.20
2022-12-18T02:58:48.601Z,40.00
2022-12-18T03:02:09.559Z,36.00
2022-12-18T03:05:18.506Z,35.00
2022-12-18T03:08:25.624Z,35.00
2022-12-18T03:11:54.239Z,38.00
2022-12-18T03:15:05.579Z,34.00
2022-12-18T03:18:14.515Z,35.00
2022-12-18T03:21:21.866Z,36.00
2022-12-18T03:24:28.549Z,37.00
2022-12-18T03:27:36.151Z,36.25
2022-12-18T03:30:49.524Z,33.25
2022-12-18T03:33:55.361Z,35.00
2022-12-18T03:37:04.516Z,33.00
2022-12-18T03:40:10.486Z,32.75
2022-12-18T03:43:22.757Z,32.00
2022-12-18T03:46:32.480Z,36.60
2022-12-18T03:49:41.015Z,35.33
2022-12-18T03:52:51.895Z,34.00
2022-12-18T03:55:56.135Z,36.25
2022-12-18T03:59:03.330Z,35.00
2022-12-18T04:02:11.636Z,36.00
2022-12-18T04:05:17.238Z,36.00
2022-12-18T04:08:22.942Z,33.75
2022-12-18T04:11:36.573Z,35.40
2022-12-18T04:14:41.422Z,35.00
2022-12-18T04:17:51.237Z,33.00
2022-12-18T04:20:58.325Z,36.00
2022-12-18T04:24:01.976Z,33.50
2022-12-18T04:27:06.423Z,33.00
2022-12-18T04:30:16.368Z,33.00
2022-12-18T04:33:21.993Z,37.25
2022-12-18T04:36:28.729Z,33.40
2022-12-18T04:39:32.704Z,36.00
2022-12-18T04:42:42.004Z,35.00
2022-12-18T04:45:45.634Z,38.00
2022-12-18T04:48:50.274Z,33.60
2022-12-18T04:51:54.159Z,35.60
2022-12-18T04:54:57.607Z,34.60
2022-12-18T04:58:00.898Z,35.00
2022-12-18T05:01:04.894Z,35.00
2022-12-18T05:04:09.704Z,37.00
2022-12-18T05:07:13.183Z,33.00
2022-12-18T05:10:16.501Z,33.00
2022-12-18T05:13:20.528Z,36.00
2022-12-18T05:16:24.269Z,34.80
2022-12-18T05:19:28.940Z,32.20
2022-12-18T05:22:32.613Z,35.00
2022-12-18T05:25:36.272Z,30.20
2022-12-18T05:28:39.567Z,33.00
2022-12-18T05:31:43.007Z,33.50
2022-12-18T05:34:48.194Z,35.75
2022-12-18T05:37:51.645Z,34.00
2022-12-18T05:40:55.318Z,34.00
2022-12-18T05:43:58.640Z,33.80
2022-12-18T05:47:02.067Z,32.40
2022-12-18T05:50:08.564Z,33.00
2022-12-18T05:53:12.045Z,34.00
2022-12-18T05:56:17.830Z,33.00
2022-12-18T05:59:21.178Z,36.00
2022-12-18T06:02:24.626Z,33.20
2022-12-18T06:05:30.110Z,33.75
2022-12-18T06:08:33.363Z,32.40
2022-12-18T06:11:38.652Z,33.00
2022-12-18T06:14:41.958Z,32.60
2022-12-18T06:17:45.327Z,37.00
2022-12-18T06:20:58.176Z,33.00
2022-12-18T06:24:02.514Z,35.60
2022-12-18T06:27:05.931Z,33.20
2022-12-18T06:30:10.768Z,33.20
2022-12-18T06:33:14.233Z,35.50
2022-12-18T06:36:19.318Z,34.00
2022-12-18T06:39:22.840Z,33.20
2022-12-18T06:42:26.258Z,35.00
2022-12-18T06:45:29.857Z,35.00
2022-12-18T06:48:35.024Z,35.00
2022-12-18T06:51:40.088Z,35.00
2022-12-18T06:54:43.583Z,32.25
2022-12-18T06:57:46.872Z,34.00
2022-12-18T07:00:50.619Z,34.25
2022-12-18T07:03:55.765Z,36.00
2022-12-18T07:07:00.585Z,36.00
2022-12-18T07:10:05.082Z,35.00
2022-12-18T07:13:08.434Z,35.80
2022-12-18T07:16:20.758Z,35.00
2022-12-18T07:19:25.766Z,36.20
2022-12-18T07:22:30.396Z,36.80
2022-12-18T07:25:36.213Z,37.00
2022-12-18T07:28:41.012Z,36.60
2022-12-18T07:31:44.493Z,38.60
2022-12-18T07:34:47.856Z,35.60
2022-12-18T07:37:52.468Z,35.00
2022-12-18T07:40:55.764Z,35.60
2022-12-18T07:43:59.263Z,36.00
2022-12-18T07:47:03.344Z,37.50
2022-12-18T07:50:09.552Z,38.00
2022-12-18T07:53:15.683Z,37.00
2022-12-18T07:56:27.237Z,38.00
2022-12-18T07:59:31.595Z,36.60
2022-12-18T08:02:35.070Z,35.00
2022-12-18T08:05:38.851Z,38.80
2022-12-18T08:08:44.060Z,37.80
2022-12-18T08:11:47.333Z,38.00
2022-12-18T08:14:50.578Z,40.00
2022-12-18T08:17:53.871Z,38.60
2022-12-18T08:20:57.518Z,34.40
2022-12-18T08:24:03.589Z,37.40
2022-12-18T08:27:28.444Z,36.60
2022-12-18T08:30:30.406Z,36.50
2022-12-18T08:33:34.617Z,37.80
2022-12-18T08:36:37.864Z,36.40
2022-12-18T08:39:42.514Z,37.00
2022-12-18T08:43:03.445Z,39.00
2022-12-18T08:46:07.036Z,35.00
2022-12-18T08:49:12.100Z,36.50
2022-12-18T08:52:15.346Z,35.25
2022-12-18T08:55:20.475Z,36.20
2022-12-18T08:58:25.062Z,35.00
2022-12-18T09:01:28.672Z,36.60
2022-12-18T09:04:32.034Z,36.00
2022-12-18T09:07:35.595Z,36.00
2022-12-18T09:10:45.838Z,31.60
2022-12-18T09:13:49.376Z,36.00
2022-12-18T09:16:52.592Z,35.00
2022-12-18T09:19:55.876Z,35.00
2022-12-18T09:22:59.138Z,35.00
2022-12-18T09:26:03.948Z,36.75
2022-12-18T09:29:08.348Z,36.50
2022-12-18T09:32:13.609Z,33.00
2022-12-18T09:35:19.624Z,33.00
2022-12-18T09:38:24.177Z,32.00
2022-12-18T09:41:45.129Z,33.00
2022-12-18T09:44:55.053Z,35.60
2022-12-18T09:47:59.418Z,35.40
2022-12-18T09:51:08.107Z,33.00
2022-12-18T09:54:18.803Z,31.50
2022-12-18T09:57:26.664Z,35.00
2022-12-18T10:00:30.111Z,35.00
2022-12-18T10:03:34.518Z,36.20
2022-12-18T10:06:43.979Z,37.00
2022-12-18T10:09:59.400Z,35.75
2022-12-18T10:13:16.599Z,35.00
2022-12-18T10:16:25.144Z,32.00
2022-12-18T10:19:50.038Z,33.00
2022-12-18T10:23:00.924Z,31.40
2022-12-18T10:26:07.410Z,32.60
2022-12-18T10:29:14.920Z,32.00
2022-12-18T10:32:20.893Z,32.75
2022-12-18T10:35:27.224Z,31.80
2022-12-18T10:38:32.818Z,33.40
2022-12-18T10:41:36.125Z,30.00
2022-12-18T10:44:40.992Z,32.00
2022-12-18T10:47:47.110Z,32.00
2022-12-18T10:54:19.038Z,32.00
2022-12-18T10:57:35.158Z,33.00
2022-12-18T11:00:40.198Z,32.00
2022-12-18T11:03:45.766Z,27.40
2022-12-18T11:06:57.872Z,30.00
2022-12-18T11:10:04.411Z,28.60
2022-12-18T11:13:19.099Z,30.00
2022-12-18T11:16:24.946Z,32.00
2022-12-18T11:19:35.998Z,25.40
2022-12-18T11:22:40.421Z,30.00
2022-12-18T11:25:54.800Z,31.60
2022-12-18T11:29:13.555Z,31.80
2022-12-18T11:32:34.429Z,31.00
2022-12-18T11:35:48.126Z,27.67
2022-12-18T11:38:55.698Z,25.00
2022-12-18T11:42:12.965Z,28.00
2022-12-18T11:45:30.151Z,28.40
2022-12-18T11:48:40.305Z,25.20
2022-12-18T11:51:51.212Z,27.20
2022-12-18T11:54:57.448Z,28.80
2022-12-18T11:58:12.012Z,29.20
2022-12-18T12:01:37.643Z,26.00
2022-12-18T12:05:04.166Z,28.00
2022-12-18T12:08:16.020Z,28.00
2022-12-18T12:11:28.736Z,27.00
2022-12-18T12:14:48.638Z,29.75
2022-12-18T12:18:00.113Z,23.00
2022-12-18T12:21:11.927Z,27.60
2022-12-18T12:24:31.747Z,26.00
2022-12-18T12:27:48.615Z,28.40
2022-12-18T12:31:03.151Z,29.00
2022-12-18T12:34:16.470Z,29.75
2022-12-18T12:37:35.919Z,29.00
2022-12-18T12:40:56.720Z,29.80
2022-12-18T12:44:08.238Z,27.40
2022-12-18T12:47:18.718Z,30.00
2022-12-18T12:50:23.970Z,30.00
2022-12-18T12:53:32.818Z,30.00
2022-12-18T12:56:46.268Z,26.00
2022-12-18T13:00:00.011Z,26.75
2022-12-18T13:03:11.397Z,20.00
2022-12-18T13:06:22.626Z,27.00
2022-12-18T13:09:31.658Z,30.00
2022-12-18T13:12:55.732Z,27.00
2022-12-18T13:16:07.352Z,28.50
2022-12-18T13:19:26.504Z,29.33
2022-12-18T13:22:34.086Z,27.00
2022-12-18T13:25:40.191Z,21.20
2022-12-18T13:28:55.007Z,28.20
2022-12-18T13:32:03.482Z,26.00
2022-12-18T13:35:41.251Z,26.75
2022-12-18T13:38:46.086Z,26.80
2022-12-18T13:41:52.754Z,26.00
2022-12-18T13:44:56.377Z,24.80
2022-12-18T13:48:00.818Z,28.00
2022-12-18T13:51:07.864Z,26.80
2022-12-18T13:54:21.867Z,27.25
2022-12-18T13:57:31.725Z,25.40
2022-12-18T14:00:35.393Z,30.00
2022-12-18T14:03:38.815Z,28.00
2022-12-18T14:06:42.942Z,27.33
2022-12-18T14:09:52.284Z,26.00
2022-12-18T14:13:08.044Z,32.40
2022-12-18T14:16:17.638Z,31.60
2022-12-18T14:19:21.186Z,35.00
2022-12-18T14:22:31.201Z,32.40
2022-12-18T14:25:34.626Z,35.60
2022-12-18T14:28:45.524Z,36.00
2022-12-18T14:32:05.837Z,37.00
2022-12-18T14:35:15.589Z,36.00
2022-12-18T14:38:28.617Z,36.25
2022-12-18T14:41:34.211Z,36.00
2022-12-18T14:44:50.715Z,38.60
2022-12-18T14:48:03.060Z,39.00
2022-12-18T14:51:08.891Z,39.80
2022-12-18T14:54:19.864Z,40.00
2022-12-18T14:57:25.922Z,39.25
2022-12-18T15:00:30.700Z,38.67
2022-12-18T15:03:34.016Z,39.60
2022-12-18T15:06:41.226Z,42.00
2022-12-18T15:09:46.308Z,37.80
2022-12-18T15:12:51.295Z,39.00
2022-12-18T15:15:58.461Z,38.00
2022-12-18T15:19:03.294Z,39.20
2022-12-18T15:22:07.037Z,41.00
2022-12-18T15:25:31.230Z,38.25
2022-12-18T15:28:39.069Z,40.60
2022-12-18T15:31:46.502Z,41.00
2022-12-18T15:34:49.791Z,39.33
2022-12-18T15:37:54.114Z,42.00
2022-12-18T15:40:57.790Z,44.00
2022-12-18T15:44:01.383Z,44.00
2022-12-18T15:47:12.320Z,43.40
2022-12-18T15:50:15.991Z,48.00
2022-12-18T15:53:20.572Z,45.00
2022-12-18T15:56:42.396Z,45.50
2022-12-18T15:59:45.794Z,46.80
2022-12-18T16:02:50.895Z,44.00
2022-12-18T16:05:54.324Z,45.00
2022-12-18T16:08:57.634Z,46.80
2022-12-18T16:12:01.084Z,46.00
2022-12-18T16:15:05.321Z,45.40
2022-12-18T16:18:10.519Z,46.80
2022-12-18T16:21:13.837Z,48.20
2022-12-18T16:24:18.652Z,48.00
2022-12-18T16:27:23.427Z,47.80
2022-12-18T16:30:32.746Z,49.00
2022-12-18T16:33:44.072Z,47.80
2022-12-18T16:36:47.614Z,50.80
2022-12-18T16:39:50.893Z,49.20
2022-12-18T16:42:54.204Z,49.00
2022-12-18T16:45:59.639Z,48.00
2022-12-18T16:49:04.437Z,50.40
2022-12-18T16:52:08.697Z,49.80
2022-12-18T16:55:12.290Z,52.00
2022-12-18T16:58:15.557Z,52.00
2022-12-18T17:01:18.841Z,48.00
2022-12-18T17:04:23.462Z,51.40
2022-12-18T17:07:28.185Z,51.80
2022-12-18T17:10:31.531Z,50.80
2022-12-18T17:13:35.117Z,53.00
2022-12-18T17:16:38.462Z,50.00
2022-12-18T17:19:44.889Z,49.75
2022-12-18T17:22:48.428Z,50.60
2022-12-18T17:25:51.640Z,50.00
2022-12-18T17:28:57.242Z,50.60
2022-12-18T17:32:01.141Z,51.40
2022-12-18T17:35:07.498Z,52.00
2022-12-18T17:38:11.861Z,52.00
2022-12-18T17:41:15.212Z,53.00
2022-12-18T17:44:19.043Z,51.60
2022-12-18T17:47:22.612Z,52.25
2022-12-18T17:50:28.640Z,52.00
2022-12-18T17:53:32.166Z,54.40
2022-12-18T17:56:35.523Z,48.60
2022-12-18T17:59:39.318Z,53.00
2022-12-18T18:02:42.897Z,50.50
2022-12-18T18:05:48.048Z,53.00
2022-12-18T18:08:51.709Z,52.00
2022-12-18T18:12:12.443Z,52.40
2022-12-18T18:15:16.568Z,51.00
2022-12-18T18:18:19.864Z,53.00
2022-12-18T18:21:26.792Z,52.00
2022-12-18T18:24:30.814Z,54.80
2022-12-18T18:27:38.503Z,53.50
2022-12-18T18:30:42.206Z,51.00
2022-12-18T18:33:45.575Z,55.00
2022-12-18T18:36:50.470Z,53.60
2022-12-18T18:39:53.710Z,57.00
2022-12-18T18:42:57.766Z,53.75
2022-12-18T18:46:02.758Z,52.00
2022-12-18T18:49:06.275Z,56.20
2022-12-18T18:52:10.906Z,55.40
2022-12-18T18:55:25.349Z,56.00
2022-12-18T18:58:30.810Z,59.00
2022-12-18T19:01:34.660Z,59.00
2022-12-18T19:04:45.824Z,59.00
2022-12-18T19:07:51.376Z,61.00
2022-12-18T19:10:57.823Z,62.25
2022-12-18T19:14:01.406Z,63.00
2022-12-18T19:17:04.976Z,61.00
2022-12-18T19:20:10.419Z,65.00
2022-12-18T19:23:16.975Z,62.25
2022-12-18T19:26:30.156Z,64.60
2022-12-18T19:29:33.708Z,58.20
2022-12-18T19:32:37.181Z,56.20
2022-12-18T19:35:40.875Z,60.00
2022-12-18T19:38:46.492Z,52.80
2022-12-18T19:41:49.903Z,64.40
2022-12-18T19:44:53.295Z,59.00
2022-12-18T19:47:59.729Z,57.00
2022-12-18T19:51:08.958Z,62.00
2022-12-18T19:54:17.379Z,64.50
2022-12-18T19:57:21.171Z,63.00
2022-12-18T20:00:24.478Z,65.20
2022-12-18T20:03:32.359Z,66.00
2022-12-18T20:06:46.719Z,63.20
2022-12-18T20:09:59.531Z,64.60
2022-12-18T20:13:07.670Z,63.00
2022-12-18T20:16:12.530Z,67.75
2022-12-18T20:19:16.419Z,63.20
2022-12-18T20:22:19.652Z,62.40
2022-12-18T20:25:24.884Z,61.33
2022-12-18T20:28:28.105Z,63.00
2022-12-18T20:31:31.915Z,59.00
2022-12-18T20:34:35.344Z,57.00
2022-12-18T20:37:39.639Z,53.00
2022-12-18T20:40:47.468Z,58.40
2022-12-18T20:43:51.002Z,57.40
2022-12-18T20:46:56.557Z,50.00
2022-12-18T20:50:01.011Z,51.60
2022-12-18T20:53:05.222Z,51.00
2022-12-18T20:56:11.394Z,51.40
2022-12-18T20:59:14.819Z,50.75
2022-12-18T21:02:18.486Z,50.50
2022-12-18T21:05:22.101Z,50.60
2022-12-18T21:08:25.679Z,50.00
2022-12-18T21:11:50.141Z,50.60
2022-12-18T21:14:53.964Z,48.20
2022-12-18T21:17:57.220Z,51.80
2022-12-18T21:21:00.792Z,52.00
2022-12-18T21:24:04.536Z,50.25
2022-12-18T21:27:09.391Z,52.20
2022-12-18T21:30:16.782Z,51.40
2022-12-18T21:33:20.288Z,53.80
2022-12-18T21:36:23.969Z,53.40
2022-12-18T21:39:27.889Z,53.50
2022-12-18T21:42:50.168Z,55.00
2022-12-18T21:45:53.559Z,53.25
2022-12-18T21:48:56.871Z,49.80
2022-12-18T21:52:01.412Z,55.60
2022-12-18T21:55:09.573Z,55.20
2022-12-18T21:58:15.113Z,53.00
2022-12-18T22:01:19.188Z,56.00
2022-12-18T22:04:23.418Z,53.20
2022-12-18T22:07:27.571Z,56.00
2022-12-18T22:10:31.048Z,54.60
2022-12-18T22:13:35.737Z,52.00
2022-12-18T22:16:39.072Z,54.20
2022-12-18T22:19:43.159Z,57.25
2022-12-18T22:22:46.932Z,56.40
2022-12-18T22:25:50.209Z,59.80
2022-12-18T22:29:12.495Z,60.00
2022-12-18T22:32:25.600Z,58.00
2022-12-18T22:35:34.914Z,60.00
2022-12-18T22:38:39.497Z,57.00
2022-12-18T22:41:43.171Z,62.75
2022-12-18T22:44:47.824Z,65.20
2022-12-18T22:47:51.307Z,59.80
2022-12-18T22:50:59.376Z,65.00
2022-12-18T22:54:02.961Z,66.50
2022-12-18T22:57:06.243Z,65.60
2022-12-18T23:00:13.393Z,68.20
2022-12-18T23:03:16.699Z,66.20
2022-12-18T23:06:20.890Z,67.00
2022-12-18T23:09:25.163Z,64.80
2022-12-18T23:12:28.434Z,68.40
2022-12-18T23:15:33.214Z,72.75
2022-12-18T23:18:37.323Z,69.00
2022-12-18T23:21:40.870Z,75.50
2022-12-18T23:24:44.358Z,73.00
2022-12-18T23:27:47.709Z,75.50
2022-12-18T23:30:52.642Z,71.40
2022-12-18T23:33:57.504Z,75.00
2022-12-18T23:37:01.240Z,68.00
2022-12-18T23:40:05.390Z,75.20
2022-12-18T23:43:08.749Z,75.00
2022-12-18T23:46:15.036Z,69.20
2022-12-18T23:49:18.427Z,76.00
2022-12-18T23:52:21.769Z,68.50
2022-12-18T23:55:25.132Z,71.60
2022-12-18T23:58:29.253Z,73.40
